Time;durP1;ratioP1;P1;durP2;ratioP2;P2;SDS_P1;SDS_P2;PMS_P1;PMS_P2;Temp;Humidity;BMP_temperature;BMP_pressure;BME280_temperature;BME280_humidity;BME280_pressure;Samples;Min_cycle;Max_cycle;Signal;HPM_P1;HPM_P2
2022/08/23 00:00:49;;;;;;;37.03;14.02;;;;;;;;;;6223700;28;20049;-62
2022/08/23 00:03:51;;;;;;;38.00;14.97;;;;;;;;;;6222399;28;20053;-61
2022/08/23 00:06:53;;;;;;;35.95;15.10;;;;;;;;;;6220739;28;20057;-61
2022/08/23 00:09:54;;;;;;;37.33;16.23;;;;;;;;;;6222270;28;20049;-60
2022/08/23 00:12:55;;;;;;;44.87;16.17;;;;;;;;;;6220628;28;20057;-61
2022/08/23 00:15:55;;;;;;;40.13;16.43;;;;;;;;;;6220209;28;20604;-61
2022/08/23 00:18:56;;;;;;;36.03;15.20;;;;;;;;;;6222882;28;20832;-61
2022/08/23 00:21:57;;;;;;;36.13;15.00;;;;;;;;;;6222064;28;20053;-60
2022/08/23 00:24:58;;;;;;;35.63;15.38;;;;;;;;;;6218407;28;20358;-62
2022/08/23 00:27:58;;;;;;;35.83;15.60;;;;;;;;;;6220323;28;20050;-63
2022/08/23 00:30:59;;;;;;;34.63;14.97;;;;;;;;;;6224465;28;20057;-61
2022/08/23 00:33:59;;;;;;;34.28;13.40;;;;;;;;;;6224888;28;20497;-62
2022/08/23 00:37:01;;;;;;;30.10;12.77;;;;;;;;;;6225339;28;20068;-61
2022/08/23 00:40:04;;;;;;;26.80;11.65;;;;;;;;;;6230360;28;20916;-61
2022/08/23 00:50:26;;;;;;;23.98;10.38;;;;;;;;;;6220850;28;20049;-62
2022/08/23 00:53:35;;;;;;;23.60;11.00;;;;;;;;;;6223634;28;20049;-61
2022/08/23 00:56:38;;;;;;;23.23;10.88;;;;;;;;;;6224421;28;20136;-61
2022/08/23 00:59:39;;;;;;;26.08;10.93;;;;;;;;;;6223822;28;20124;-61
2022/08/23 01:02:41;;;;;;;26.80;11.10;;;;;;;;;;6221211;28;20041;-62
2022/08/23 01:06:07;;;;;;;26.58;11.65;;;;;;;;;;6220976;28;20046;-62
2022/08/23 01:09:12;;;;;;;28.23;12.40;;;;;;;;;;6218049;28;20475;-62
2022/08/23 01:12:29;;;;;;;27.05;11.82;;;;;;;;;;6221666;28;20428;-62
2022/08/23 01:15:34;;;;;;;27.02;11.15;;;;;;;;;;6221475;28;20050;-62
2022/08/23 01:18:36;;;;;;;30.40;11.70;;;;;;;;;;6221518;28;20111;-63
2022/08/23 01:21:52;;;;;;;28.65;12.20;;;;;;;;;;6221592;28;20515;-61
2022/08/23 01:24:53;;;;;;;29.02;11.25;;;;;;;;;;6218515;28;20108;-61
2022/08/23 01:27:55;;;;;;;32.58;11.68;;;;;;;;;;6221215;28;20053;-61
2022/08/23 01:30:56;;;;;;;34.80;11.93;;;;;;;;;;6217437;28;20053;-62
2022/08/23 01:34:02;;;;;;;27.90;11.67;;;;;;;;;;6219875;28;20060;-62
2022/08/23 01:37:06;;;;;;;28.92;12.07;;;;;;;;;;6219909;28;20132;-61
2022/08/23 01:40:07;;;;;;;29.73;12.70;;;;;;;;;;6220863;28;20042;-60
2022/08/23 01:43:08;;;;;;;33.85;14.70;;;;;;;;;;6219977;28;20095;-61
2022/08/23 01:46:13;;;;;;;33.27;12.63;;;;;;;;;;6217027;28;20386;-62
2022/08/23 01:49:15;;;;;;;28.05;12.60;;;;;;;;;;6220353;28;20061;-61
2022/08/23 01:52:16;;;;;;;31.63;13.55;;;;;;;;;;6220432;28;20530;-59
2022/08/23 01:55:17;;;;;;;35.17;13.35;;;;;;;;;;6219970;28;20140;-60
2022/08/23 01:58:17;;;;;;;33.53;13.07;;;;;;;;;;6221982;28;20045;-60
2022/08/23 02:01:19;;;;;;;32.63;12.20;;;;;;;;;;6216353;28;20045;-60
2022/08/23 02:04:21;;;;;;;30.47;12.53;;;;;;;;;;6217395;28;20128;-59
2022/08/23 02:07:26;;;;;;;30.05;12.13;;;;;;;;;;6218812;28;20041;-62
2022/08/23 02:10:26;;;;;;;50.63;13.18;;;;;;;;;;6218819;28;20686;-61
2022/08/23 02:13:28;;;;;;;49.57;13.27;;;;;;;;;;6218543;28;20168;-62
2022/08/23 02:16:35;;;;;;;31.08;12.95;;;;;;;;;;6220816;28;20041;-62
2022/08/23 02:19:37;;;;;;;36.85;12.50;;;;;;;;;;6221558;28;20140;-63
2022/08/23 02:22:38;;;;;;;29.77;12.23;;;;;;;;;;6216854;28;20046;-62
2022/08/23 02:25:39;;;;;;;32.10;13.40;;;;;;;;;;6217561;28;20515;-62
2022/08/23 02:28:40;;;;;;;32.87;12.73;;;;;;;;;;6222224;28;20119;-62
2022/08/23 02:31:41;;;;;;;36.10;12.13;;;;;;;;;;6220686;28;20052;-61
2022/08/23 02:34:43;;;;;;;31.70;12.00;;;;;;;;;;6218890;28;20037;-61
2022/08/23 02:37:44;;;;;;;35.08;12.35;;;;;;;;;;6218428;28;20175;-61
2022/08/23 02:40:44;;;;;;;34.83;11.80;;;;;;;;;;6219763;28;20787;-62
2022/08/23 02:43:45;;;;;;;36.28;13.00;;;;;;;;;;6217290;28;20042;-61
2022/08/23 02:46:46;;;;;;;32.47;12.05;;;;;;;;;;6217053;28;20042;-62
2022/08/23 02:49:47;;;;;;;33.87;13.63;;;;;;;;;;6217358;28;20042;-63
2022/08/23 02:52:47;;;;;;;33.73;13.77;;;;;;;;;;6220523;28;20137;-60
2022/08/23 02:55:48;;;;;;;33.47;12.70;;;;;;;;;;6216167;28;20050;-61
2022/08/23 02:58:50;;;;;;;31.00;13.13;;;;;;;;;;6217060;28;20050;-60
2022/08/23 03:01:51;;;;;;;25.70;10.95;;;;;;;;;;6219444;28;20416;-60
2022/08/23 03:04:51;;;;;;;32.23;12.20;;;;;;;;;;6217822;28;20042;-60
2022/08/23 03:07:52;;;;;;;29.63;12.07;;;;;;;;;;6221422;28;20042;-60
2022/08/23 03:10:52;;;;;;;29.90;12.47;;;;;;;;;;6222211;28;20168;-60
2022/08/23 03:13:55;;;;;;;29.33;11.83;;;;;;;;;;6223285;28;20140;-61
2022/08/23 03:16:55;;;;;;;28.73;11.98;;;;;;;;;;6221485;28;20118;-61
2022/08/23 03:19:56;;;;;;;31.67;12.90;;;;;;;;;;6221522;28;20486;-60
2022/08/23 03:22:57;;;;;;;36.10;13.20;;;;;;;;;;6221404;28;20045;-61
2022/08/23 03:26:00;;;;;;;31.13;13.03;;;;;;;;;;6217793;28;20041;-61
2022/08/23 03:29:00;;;;;;;32.70;12.65;;;;;;;;;;6233580;28;20103;-62
2022/08/23 03:32:02;;;;;;;31.57;12.30;;;;;;;;;;6236614;28;20509;-61
2022/08/23 03:35:04;;;;;;;29.25;12.23;;;;;;;;;;6231259;28;20065;-61
2022/08/23 03:38:05;;;;;;;31.65;12.70;;;;;;;;;;6225393;28;20942;-61
2022/08/23 03:41:07;;;;;;;33.40;12.03;;;;;;;;;;6227612;28;20056;-61
2022/08/23 03:44:07;;;;;;;32.33;11.95;;;;;;;;;;6226532;28;20055;-61
2022/08/23 03:47:08;;;;;;;26.90;11.00;;;;;;;;;;6232705;28;20046;-60
2022/08/23 03:50:10;;;;;;;32.37;10.90;;;;;;;;;;6236319;28;20041;-63
2022/08/23 03:53:11;;;;;;;33.40;12.55;;;;;;;;;;6227049;28;20092;-61
2022/08/23 03:56:27;;;;;;;28.65;12.02;;;;;;;;;;6220578;28;20500;-61
2022/08/23 03:59:29;;;;;;;27.23;11.85;;;;;;;;;;6239922;28;20049;-61
2022/08/23 04:02:30;;;;;;;30.33;11.85;;;;;;;;;;6241670;28;20040;-60
2022/08/23 04:05:31;;;;;;;29.20;11.93;;;;;;;;;;6231659;28;20041;-60
2022/08/23 04:08:31;;;;;;;29.83;12.48;;;;;;;;;;6231939;28;20058;-60
2022/08/23 04:11:32;;;;;;;29.90;12.13;;;;;;;;;;6231289;28;20132;-61
2022/08/23 04:14:34;;;;;;;30.73;11.87;;;;;;;;;;6226020;28;20055;-61
2022/08/23 04:17:35;;;;;;;;;;;;;;;;;;6232397;28;20512;-61
2022/08/23 04:20:36;;;;;;;27.35;10.93;;;;;;;;;;6223057;28;19932;-60
2022/08/23 04:23:39;;;;;;;31.02;11.80;;;;;;;;;;6223307;28;20091;-61
2022/08/23 04:26:40;;;;;;;34.15;12.73;;;;;;;;;;6221984;28;20595;-61
2022/08/23 04:29:41;;;;;;;34.63;13.43;;;;;;;;;;6229908;28;20038;-61
2022/08/23 04:32:41;;;;;;;34.90;13.37;;;;;;;;;;6235831;28;20065;-61
2022/08/23 04:35:42;;;;;;;34.27;13.63;;;;;;;;;;6240498;28;20045;-60
2022/08/23 04:38:43;;;;;;;32.72;13.70;;;;;;;;;;6231759;28;20122;-61
2022/08/23 04:45:04;;;;;;;41.47;15.48;;;;;;;;;;6236220;28;20100;-62
2022/08/23 04:48:05;;;;;;;44.73;15.67;;;;;;;;;;6236368;28;20045;-61
2022/08/23 04:51:05;;;;;;;45.80;16.02;;;;;;;;;;6238494;28;20041;-61
2022/08/23 04:54:09;;;;;;;41.63;15.37;;;;;;;;;;6242416;28;20055;-60
2022/08/23 04:57:09;;;;;;;48.53;17.05;;;;;;;;;;6233364;28;20049;-61
2022/08/23 05:00:12;;;;;;;51.07;17.90;;;;;;;;;;6228823;28;20143;-61
2022/08/23 05:03:13;;;;;;;55.75;18.83;;;;;;;;;;6238027;28;20147;-60
2022/08/23 05:06:13;;;;;;;49.93;17.10;;;;;;;;;;6231122;28;20480;-60
2022/08/23 05:09:14;;;;;;;55.90;19.67;;;;;;;;;;6235453;28;20060;-60
2022/08/23 05:12:15;;;;;;;56.47;19.50;;;;;;;;;;6219667;28;20046;-60
2022/08/23 05:15:15;;;;;;;61.37;19.80;;;;;;;;;;6218682;28;20962;-60
2022/08/23 05:18:16;;;;;;;56.00;18.23;;;;;;;;;;6215546;28;20046;-61
2022/08/23 05:21:20;;;;;;;61.17;19.17;;;;;;;;;;6218627;28;20144;-61
2022/08/23 05:24:20;;;;;;;59.03;19.45;;;;;;;;;;6219948;28;20061;-61
2022/08/23 05:27:21;;;;;;;61.23;20.57;;;;;;;;;;6228710;28;20050;-64
2022/08/23 05:30:22;;;;;;;61.50;19.70;;;;;;;;;;6229002;28;20046;-60
2022/08/23 05:33:23;;;;;;;62.67;21.93;;;;;;;;;;6232061;28;20144;-62
2022/08/23 05:36:23;;;;;;;71.93;23.63;;;;;;;;;;6233256;28;20045;-62
2022/08/23 05:39:24;;;;;;;78.37;24.47;;;;;;;;;;6240477;28;20488;-61
2022/08/23 05:42:24;;;;;;;68.97;21.90;;;;;;;;;;6238667;28;20057;-61
2022/08/23 05:45:25;;;;;;;74.80;23.73;;;;;;;;;;6235726;28;20038;-60
2022/08/23 05:48:25;;;;;;;78.53;23.73;;;;;;;;;;6234667;28;20129;-60
2022/08/23 05:51:31;;;;;;;81.60;25.05;;;;;;;;;;6234961;28;20480;-61
2022/08/23 05:54:32;;;;;;;84.82;25.70;;;;;;;;;;6235012;28;20493;-61
2022/08/23 05:57:36;;;;;;;91.30;29.02;;;;;;;;;;6233555;28;20175;-61
2022/08/23 06:00:37;;;;;;;95.25;29.60;;;;;;;;;;6237020;28;20089;-61
2022/08/23 06:03:39;;;;;;;89.33;27.37;;;;;;;;;;6228013;28;20116;-60
2022/08/23 06:06:41;;;;;;;87.40;28.17;;;;;;;;;;6218508;28;20301;-61
2022/08/23 06:09:42;;;;;;;96.40;28.67;;;;;;;;;;6216724;28;20130;-60
2022/08/23 06:12:43;;;;;;;97.73;30.13;;;;;;;;;;6218648;28;20053;-62
2022/08/23 06:15:43;;;;;;;88.27;30.70;;;;;;;;;;6219798;28;20125;-60
2022/08/23 06:18:45;;;;;;;87.93;28.87;;;;;;;;;;6218921;28;20073;-61
2022/08/23 06:21:47;;;;;;;81.32;27.00;;;;;;;;;;6221091;28;20140;-61
2022/08/23 06:24:48;;;;;;;77.40;27.33;;;;;;;;;;6219195;28;20061;-61
2022/08/23 06:27:48;;;;;;;79.83;26.07;;;;;;;;;;6216263;28;20061;-59
2022/08/23 06:30:52;;;;;;;81.57;27.03;;;;;;;;;;6220927;28;20049;-60
2022/08/23 06:33:53;;;;;;;73.45;25.40;;;;;;;;;;6218548;28;20083;-60
2022/08/23 06:36:56;;;;;;;72.90;25.50;;;;;;;;;;6218464;28;20046;-61
2022/08/23 06:39:57;;;;;;;75.38;26.40;;;;;;;;;;6216430;28;20402;-60
2022/08/23 06:42:57;;;;;;;67.00;24.83;;;;;;;;;;6220122;28;20041;-61
2022/08/23 06:46:17;;;;;;;75.30;27.40;;;;;;;;;;6226382;28;20119;-60
2022/08/23 06:49:17;;;;;;;73.43;26.95;;;;;;;;;;6202709;28;20845;-60
2022/08/23 06:52:18;;;;;;;78.37;26.40;;;;;;;;;;6194528;28;20054;-61
2022/08/23 06:55:18;;;;;;;74.63;27.40;;;;;;;;;;6192871;28;20046;-61
2022/08/23 06:58:19;;;;;;;78.40;27.40;;;;;;;;;;6194099;28;20496;-61
2022/08/23 07:01:27;;;;;;;77.60;26.27;;;;;;;;;;6196275;28;20560;-61
2022/08/23 07:04:31;;;;;;;81.70;28.02;;;;;;;;;;6196348;28;20501;-61
2022/08/23 07:07:32;;;;;;;79.03;27.80;;;;;;;;;;6199909;28;20657;-61
2022/08/23 07:10:33;;;;;;;81.60;27.27;;;;;;;;;;6198794;28;20046;-60
2022/08/23 07:13:33;;;;;;;72.87;24.10;;;;;;;;;;6196618;28;20446;-60
2022/08/23 07:16:39;;;;;;;70.53;23.97;;;;;;;;;;6198734;28;20232;-61
2022/08/23 07:19:42;;;;;;;71.13;25.63;;;;;;;;;;6196261;28;20054;-61
2022/08/23 07:22:43;;;;;;;79.35;28.42;;;;;;;;;;6197894;28;20141;-61
2022/08/23 07:25:43;;;;;;;73.70;25.30;;;;;;;;;;6195494;28;20062;-61
2022/08/23 07:28:44;;;;;;;72.83;26.87;;;;;;;;;;6205668;28;20129;-60
2022/08/23 07:31:51;;;;;;;77.13;25.60;;;;;;;;;;6205736;28;20050;-60
2022/08/23 07:34:52;;;;;;;81.90;25.45;;;;;;;;;;6199858;28;20050;-61
2022/08/23 07:37:52;;;;;;;78.47;26.57;;;;;;;;;;6198422;28;20082;-61
2022/08/23 07:40:53;;;;;;;72.73;24.83;;;;;;;;;;6197674;28;20134;-61
2022/08/23 07:43:56;;;;;;;70.53;24.87;;;;;;;;;;6197700;28;20052;-61
2022/08/23 07:46:57;;;;;;;65.32;23.95;;;;;;;;;;6204156;28;20145;-61
2022/08/23 07:49:58;;;;;;;74.17;26.43;;;;;;;;;;6219033;28;20045;-61
2022/08/23 07:52:59;;;;;;;69.40;25.17;;;;;;;;;;6223927;28;20053;-61
2022/08/23 07:56:04;;;;;;;67.47;24.52;;;;;;;;;;6223581;28;20127;-61
2022/08/23 07:59:07;;;;;;;63.65;24.83;;;;;;;;;;6228911;28;20052;-61
2022/08/23 08:02:07;;;;;;;61.75;24.50;;;;;;;;;;6220648;28;20037;-61
2022/08/23 08:05:08;;;;;;;66.70;25.97;;;;;;;;;;6219111;28;20061;-61
2022/08/23 08:08:10;;;;;;;69.23;24.13;;;;;;;;;;6224663;28;20638;-60
2022/08/23 08:11:13;;;;;;;65.47;23.35;;;;;;;;;;6218072;28;20041;-61
2022/08/23 08:14:14;;;;;;;66.07;26.15;;;;;;;;;;6220095;28;21759;-61
2022/08/23 08:17:17;;;;;;;68.03;24.98;;;;;;;;;;6225188;28;20046;-60
2022/08/23 08:20:19;;;;;;;60.35;23.38;;;;;;;;;;6218248;28;20176;-61
2022/08/23 08:23:20;;;;;;;61.85;25.25;;;;;;;;;;6223536;28;20865;-62
2022/08/23 08:26:21;;;;;;;58.03;24.03;;;;;;;;;;6219096;28;20069;-61
2022/08/23 08:29:22;;;;;;;;;;;;;;;;;;6221579;28;20076;-61
2022/08/23 08:32:24;;;;;;;57.92;23.25;;;;;;;;;;6221237;28;19921;-61
2022/08/23 08:35:24;;;;;;;61.30;23.00;;;;;;;;;;6219630;28;20040;-60
2022/08/23 08:38:25;;;;;;;57.83;22.97;;;;;;;;;;6221283;28;20050;-61
2022/08/23 08:41:50;;;;;;;61.85;24.13;;;;;;;;;;6220430;28;20045;-61
2022/08/23 08:45:05;;;;;;;58.55;23.80;;;;;;;;;;6222860;28;20425;-61
2022/08/23 08:48:08;;;;;;;55.17;23.27;;;;;;;;;;6225339;28;20663;-61
2022/08/23 08:51:32;;;;;;;59.80;25.13;;;;;;;;;;6223481;28;20052;-61
2022/08/23 08:54:36;;;;;;;63.35;25.90;;;;;;;;;;6220140;28;20784;-60
2022/08/23 08:57:43;;;;;;;63.55;25.77;;;;;;;;;;6220651;28;20049;-60
2022/08/23 09:00:45;;;;;;;60.42;24.30;;;;;;;;;;6220175;28;20144;-61
2022/08/23 09:03:47;;;;;;;55.38;23.20;;;;;;;;;;6220739;28;20041;-61
2022/08/23 09:06:51;;;;;;;;;;;;;;;;;;6227012;28;20137;-60
2022/08/23 09:10:05;;;;;;;62.47;26.60;;;;;;;;;;6220466;28;19932;-61
2022/08/23 09:13:44;;;;;;;59.88;24.95;;;;;;;;;;6227335;28;20127;-61
2022/08/23 09:17:01;;;;;;;66.40;26.50;;;;;;;;;;6234195;28;20050;-60
2022/08/23 09:20:05;;;;;;;59.10;25.73;;;;;;;;;;6238869;28;20124;-61
2022/08/23 09:23:17;;;;;;;59.20;25.23;;;;;;;;;;6220040;28;20058;-60
2022/08/23 09:26:24;;;;;;;58.63;24.63;;;;;;;;;;6200916;28;20050;-60
2022/08/23 09:29:35;;;;;;;57.30;24.60;;;;;;;;;;6217140;28;20049;-61
2022/08/23 09:32:42;;;;;;;60.08;25.17;;;;;;;;;;6219167;28;20998;-61
2022/08/23 09:35:43;;;;;;;56.42;24.85;;;;;;;;;;6221221;28;20496;-60
2022/08/23 09:39:18;;;;;;;59.33;25.50;;;;;;;;;;6220891;28;20061;-61
2022/08/23 09:42:29;;;;;;;61.47;25.73;;;;;;;;;;6209368;28;20075;-61
2022/08/23 09:45:35;;;;;;;63.40;26.20;;;;;;;;;;6222711;28;20141;-61
2022/08/23 09:48:45;;;;;;;66.00;26.40;;;;;;;;;;6218220;28;20200;-62
2022/08/23 09:51:47;;;;;;;65.07;25.98;;;;;;;;;;6216189;28;20481;-61
2022/08/23 09:55:34;;;;;;;65.95;27.48;;;;;;;;;;6217790;28;20045;-61
2022/08/23 09:58:41;;;;;;;65.93;27.50;;;;;;;;;;6210213;28;20207;-61
2022/08/23 10:01:46;;;;;;;75.43;29.30;;;;;;;;;;6218393;28;20045;-61
2022/08/23 10:04:57;;;;;;;81.10;31.88;;;;;;;;;;6217964;28;20041;-60
2022/08/23 10:08:00;;;;;;;78.63;31.60;;;;;;;;;;6217849;28;20034;-60
2022/08/23 10:11:11;;;;;;;74.65;30.90;;;;;;;;;;6221264;28;20038;-59
2022/08/23 10:14:14;;;;;;;74.20;30.60;;;;;;;;;;6220879;28;20401;-61
2022/08/23 10:17:35;;;;;;;79.65;30.50;;;;;;;;;;6219544;28;20084;-59
2022/08/23 10:20:43;;;;;;;78.60;31.10;;;;;;;;;;6225501;28;20077;-60
2022/08/23 10:24:07;;;;;;;81.10;31.50;;;;;;;;;;6235762;28;20049;-60
2022/08/23 10:31:31;;;;;;;80.85;30.98;;;;;;;;;;6224046;28;20144;-60
2022/08/23 10:35:14;;;;;;;85.22;32.60;;;;;;;;;;6146615;28;20055;-59
2022/08/23 10:38:37;;;;;;;82.60;31.88;;;;;;;;;;6163258;28;21579;-60
2022/08/23 10:41:53;;;;;;;76.53;30.10;;;;;;;;;;6219341;28;20108;-60
2022/08/23 10:45:07;;;;;;;79.18;31.08;;;;;;;;;;6217406;28;20066;-61
2022/08/23 10:48:16;;;;;;;83.22;30.55;;;;;;;;;;6216132;28;20046;-60
2022/08/23 10:51:34;;;;;;;87.25;31.85;;;;;;;;;;6215791;28;20095;-60
2022/08/23 10:54:45;;;;;;;79.75;31.20;;;;;;;;;;6221052;28;20033;-60
2022/08/23 10:57:47;;;;;;;90.38;34.80;;;;;;;;;;6224885;28;20176;-61
2022/08/23 11:00:50;;;;;;;87.40;35.78;;;;;;;;;;6223890;28;20096;-61
2022/08/23 11:04:15;;;;;;;78.93;30.27;;;;;;;;;;6219501;28;20128;-61
2022/08/23 11:07:18;;;;;;;76.10;29.45;;;;;;;;;;6218392;28;20084;-61
2022/08/23 11:10:51;;;;;;;71.63;29.00;;;;;;;;;;6216531;28;20078;-60
2022/08/23 11:13:52;;;;;;;73.50;28.98;;;;;;;;;;6216032;28;20676;-61
2022/08/23 11:16:59;;;;;;;75.93;29.48;;;;;;;;;;6217180;28;20140;-60
2022/08/23 11:20:04;;;;;;;75.20;28.75;;;;;;;;;;6217215;28;20132;-61
2022/08/23 11:23:06;;;;;;;77.53;29.25;;;;;;;;;;6218890;28;20132;-60
2022/08/23 11:26:25;;;;;;;76.15;30.38;;;;;;;;;;6227635;28;20045;-61
2022/08/23 11:29:28;;;;;;;83.10;30.00;;;;;;;;;;6230893;28;20072;-60
2022/08/23 11:32:39;;;;;;;81.68;31.15;;;;;;;;;;6237146;28;20162;-61
2022/08/23 11:35:44;;;;;;;75.18;29.95;;;;;;;;;;6219245;28;20088;-60
2022/08/23 11:38:47;;;;;;;75.90;30.77;;;;;;;;;;6216108;28;20579;-61
2022/08/23 11:41:54;;;;;;;77.95;30.63;;;;;;;;;;6217370;28;20623;-60
2022/08/23 11:44:54;;;;;;;76.07;30.45;;;;;;;;;;6216202;28;20038;-60
2022/08/23 11:48:11;;;;;;;78.63;31.20;;;;;;;;;;6214584;28;20046;-61
2022/08/23 11:51:30;;;;;;;79.03;30.90;;;;;;;;;;6218656;28;20402;-60
2022/08/23 11:54:50;;;;;;;80.78;30.85;;;;;;;;;;6217252;28;20053;-59
2022/08/23 11:58:12;;;;;;;79.28;30.30;;;;;;;;;;6220077;28;20037;-61
2022/08/23 12:01:14;;;;;;;76.50;30.58;;;;;;;;;;6221458;28;20552;-60
2022/08/23 12:04:40;;;;;;;83.10;31.92;;;;;;;;;;6216700;28;20322;-61
2022/08/23 12:08:01;;;;;;;80.20;30.70;;;;;;;;;;6222816;28;20049;-60
2022/08/23 12:11:08;;;;;;;87.60;33.13;;;;;;;;;;6206764;28;20057;-61
2022/08/23 12:14:32;;;;;;;83.13;31.70;;;;;;;;;;6219613;28;20509;-62
2022/08/23 12:17:33;;;;;;;86.25;32.53;;;;;;;;;;6212579;28;20091;-61
2022/08/23 12:20:35;;;;;;;83.60;33.13;;;;;;;;;;6220268;28;20091;-61
2022/08/23 12:23:49;;;;;;;83.80;32.78;;;;;;;;;;6221352;28;20076;-61
2022/08/23 12:26:58;;;;;;;90.00;32.58;;;;;;;;;;6216966;28;20499;-61
2022/08/23 12:30:04;;;;;;;101.95;43.05;;;;;;;;;;6219806;28;20049;-60
2022/08/23 12:33:05;;;;;;;86.78;34.08;;;;;;;;;;6220003;28;20713;-61
2022/08/23 12:36:23;;;;;;;86.47;32.93;;;;;;;;;;6218123;28;20049;-61
2022/08/23 12:39:27;;;;;;;84.90;32.88;;;;;;;;;;6217679;28;20145;-61
2022/08/23 12:42:32;;;;;;;87.13;33.30;;;;;;;;;;6222655;28;20049;-61
2022/08/23 12:45:43;;;;;;;88.00;32.83;;;;;;;;;;6225068;28;20041;-62
2022/08/23 12:48:45;;;;;;;84.30;34.50;;;;;;;;;;6220572;28;20087;-60
2022/08/23 12:51:51;;;;;;;82.82;31.95;;;;;;;;;;6219862;28;20052;-61
2022/08/23 12:54:53;;;;;;;80.85;33.35;;;;;;;;;;6222075;28;20096;-62
2022/08/23 12:57:56;;;;;;;83.20;33.13;;;;;;;;;;6223414;28;20061;-61
2022/08/23 13:01:02;;;;;;;89.88;32.55;;;;;;;;;;6218345;28;20038;-61
2022/08/23 13:04:07;;;;;;;92.30;35.35;;;;;;;;;;6228175;28;20300;-61
2022/08/23 13:07:19;;;;;;;88.40;34.72;;;;;;;;;;6222189;28;20590;-61
2022/08/23 13:10:20;;;;;;;91.85;35.53;;;;;;;;;;6220097;28;20759;-60
2022/08/23 13:13:24;;;;;;;84.60;33.00;;;;;;;;;;6218773;28;20320;-58
2022/08/23 13:16:42;;;;;;;86.38;33.60;;;;;;;;;;6220679;28;20166;-59
2022/08/23 13:19:43;;;;;;;91.53;38.72;;;;;;;;;;6218140;28;20145;-60
2022/08/23 13:23:01;;;;;;;91.45;36.55;;;;;;;;;;6216666;28;20545;-59
2022/08/23 13:26:35;;;;;;;91.95;36.17;;;;;;;;;;6219135;28;20038;-58
2022/08/23 13:29:51;;;;;;;96.53;38.20;;;;;;;;;;6221022;28;20148;-59
2022/08/23 13:33:12;;;;;;;80.93;33.20;;;;;;;;;;6219158;28;20095;-58
2022/08/23 13:36:19;;;;;;;88.55;34.60;;;;;;;;;;6225082;28;20092;-59
2022/08/23 13:39:20;;;;;;;91.10;38.33;;;;;;;;;;6228035;28;20637;-58
2022/08/23 13:42:35;;;;;;;83.87;34.00;;;;;;;;;;6230281;28;20513;-60
2022/08/23 13:45:44;;;;;;;88.47;35.63;;;;;;;;;;6217122;28;20723;-59
2022/08/23 13:48:51;;;;;;;83.25;34.10;;;;;;;;;;6217880;28;20057;-59
2022/08/23 13:51:57;;;;;;;87.00;34.35;;;;;;;;;;6219855;28;20116;-59
2022/08/23 13:54:58;;;;;;;76.82;32.45;;;;;;;;;;6216781;28;20277;-60
2022/08/23 13:57:59;;;;;;;83.87;33.80;;;;;;;;;;6218549;28;20050;-58
2022/08/23 14:01:02;;;;;;;86.80;33.35;;;;;;;;;;6217073;28;20076;-60
2022/08/23 14:04:03;;;;;;;85.53;33.10;;;;;;;;;;6220583;28;20103;-59
2022/08/23 14:07:05;;;;;;;83.95;32.95;;;;;;;;;;6222954;28;20049;-60
2022/08/23 14:10:05;;;;;;;;;;;;;;;;;;6219001;28;20123;-58
2022/08/23 14:13:06;;;;;;;77.27;31.10;;;;;;;;;;6219441;28;20388;-60
2022/08/23 14:16:08;;;;;;;72.47;30.70;;;;;;;;;;6216246;28;20121;-60
2022/08/23 14:19:10;;;;;;;73.40;29.48;;;;;;;;;;6216581;28;20053;-59
2022/08/23 14:22:11;;;;;;;72.50;30.00;;;;;;;;;;6219273;28;20156;-60
2022/08/23 14:25:12;;;;;;;74.05;30.55;;;;;;;;;;6216111;28;20052;-60
2022/08/23 14:28:13;;;;;;;78.15;30.23;;;;;;;;;;6217035;28;20037;-60
2022/08/23 14:31:14;;;;;;;67.77;29.67;;;;;;;;;;6208346;28;20057;-62
2022/08/23 14:34:15;;;;;;;76.25;30.52;;;;;;;;;;6225125;28;20061;-59
2022/08/23 14:37:16;;;;;;;72.23;28.47;;;;;;;;;;6227608;28;20057;-61
2022/08/23 14:40:17;;;;;;;65.83;27.10;;;;;;;;;;6229638;28;20061;-60
2022/08/23 14:43:19;;;;;;;70.63;29.35;;;;;;;;;;6227235;28;20061;-60
2022/08/23 14:46:21;;;;;;;73.72;29.83;;;;;;;;;;6224992;28;20057;-60
2022/08/23 14:49:21;;;;;;;65.82;28.80;;;;;;;;;;6224974;28;20053;-60
2022/08/23 14:52:22;;;;;;;58.97;26.77;;;;;;;;;;6227621;28;20057;-62
2022/08/23 14:55:23;;;;;;;63.13;25.73;;;;;;;;;;6224855;28;20144;-59
2022/08/23 14:58:24;;;;;;;60.10;27.87;;;;;;;;;;6225434;28;20064;-60
2022/08/23 15:01:25;;;;;;;;;;;;;;;;;;6223570;28;20079;-60
2022/08/23 15:04:26;;;;;;;65.30;28.13;;;;;;;;;;6223416;28;19929;-60
2022/08/23 15:07:26;;;;;;;71.72;30.30;;;;;;;;;;6225265;28;20057;-59
2022/08/23 15:10:29;;;;;;;73.15;30.42;;;;;;;;;;6224848;28;20057;-59
2022/08/23 15:13:30;;;;;;;66.18;28.52;;;;;;;;;;6225584;28;20046;-60
2022/08/23 15:16:32;;;;;;;59.25;26.63;;;;;;;;;;6223723;28;20783;-60
2022/08/23 15:19:32;;;;;;;67.45;29.08;;;;;;;;;;6223997;28;20089;-57
2022/08/23 15:22:33;;;;;;;59.27;27.43;;;;;;;;;;6224862;28;20049;-63
2022/08/23 15:25:37;;;;;;;66.97;29.50;;;;;;;;;;6226999;28;20054;-64
2022/08/23 15:28:39;;;;;;;64.57;29.13;;;;;;;;;;6226846;28;20476;-63
2022/08/23 15:31:40;;;;;;;72.22;31.17;;;;;;;;;;6229932;28;20033;-60
2022/08/23 15:34:40;;;;;;;73.70;28.60;;;;;;;;;;6228347;28;20084;-58
2022/08/23 15:37:41;;;;;;;75.53;32.30;;;;;;;;;;6228007;28;20076;-59
2022/08/23 15:40:42;;;;;;;78.27;31.53;;;;;;;;;;6229535;28;20045;-61
2022/08/23 15:43:43;;;;;;;75.50;32.63;;;;;;;;;;6232277;28;20040;-60
2022/08/23 15:46:46;;;;;;;82.78;33.97;;;;;;;;;;6229409;28;20045;-59
2022/08/23 15:49:48;;;;;;;77.78;31.20;;;;;;;;;;6229256;28;20054;-60
2022/08/23 15:52:48;;;;;;;79.13;31.50;;;;;;;;;;6230092;28;20049;-60
2022/08/23 15:55:50;;;;;;;82.25;33.22;;;;;;;;;;6228918;28;20042;-59
2022/08/23 15:58:51;;;;;;;;;;;;;;;;;;6228729;28;20053;-62
2022/08/23 16:01:52;;;;;;;79.57;32.43;;;;;;;;;;6227965;28;19992;-62
2022/08/23 16:04:52;;;;;;;72.07;32.17;;;;;;;;;;6229202;28;20056;-62
2022/08/23 16:07:55;;;;;;;73.57;32.57;;;;;;;;;;6228309;28;20045;-63
2022/08/23 16:10:56;;;;;;;74.35;30.77;;;;;;;;;;6227157;28;20115;-62
2022/08/23 16:13:57;;;;;;;;;;;;;;;;;;6229706;28;20116;-60
2022/08/23 16:16:59;;;;;;;79.32;32.03;;;;;;;;;;6225538;28;20020;-62
2022/08/23 16:19:59;;;;;;;77.40;33.25;;;;;;;;;;6229502;28;20601;-60
2022/08/23 16:23:00;;;;;;;76.73;32.43;;;;;;;;;;6223230;28;20103;-61
2022/08/23 16:26:01;;;;;;;80.15;35.08;;;;;;;;;;6225519;28;20054;-59
2022/08/23 16:29:06;;;;;;;81.03;33.30;;;;;;;;;;6226457;28;20056;-61
2022/08/23 16:32:07;;;;;;;76.22;31.58;;;;;;;;;;6227867;28;20477;-60
2022/08/23 16:35:09;;;;;;;71.82;31.30;;;;;;;;;;6225373;28;20053;-60
2022/08/23 16:38:09;;;;;;;76.05;31.17;;;;;;;;;;6227898;28;20038;-59
2022/08/23 16:41:11;;;;;;;83.27;32.53;;;;;;;;;;6229444;28;20124;-59
2022/08/23 16:44:12;;;;;;;71.22;30.13;;;;;;;;;;6224694;28;20050;-59
2022/08/23 16:47:14;;;;;;;75.83;32.13;;;;;;;;;;6229850;28;20420;-53
2022/08/23 16:50:14;;;;;;;72.38;30.23;;;;;;;;;;6228701;28;20053;-62
2022/08/23 16:53:15;;;;;;;73.73;30.50;;;;;;;;;;6228083;28;20477;-60
2022/08/23 16:56:16;;;;;;;74.88;30.63;;;;;;;;;;6226891;28;20060;-59
2022/08/23 16:59:17;;;;;;;78.43;30.60;;;;;;;;;;6227986;28;20511;-59
2022/08/23 17:02:28;;;;;;;74.82;30.13;;;;;;;;;;6229965;28;20576;-58
2022/08/23 17:05:29;;;;;;;80.30;31.73;;;;;;;;;;6226892;28;20532;-60
2022/08/23 17:08:30;;;;;;;71.00;29.80;;;;;;;;;;6229545;28;20096;-59
2022/08/23 17:11:31;;;;;;;72.75;30.17;;;;;;;;;;6229684;28;20139;-60
2022/08/23 17:14:32;;;;;;;78.20;31.07;;;;;;;;;;6228101;28;20393;-58
2022/08/23 17:17:32;;;;;;;85.60;30.77;;;;;;;;;;6226120;28;20104;-58
2022/08/23 17:20:36;;;;;;;79.77;30.90;;;;;;;;;;6227068;28;20499;-58
2022/08/23 17:23:36;;;;;;;77.60;31.05;;;;;;;;;;6228351;28;20053;-61
2022/08/23 17:26:38;;;;;;;78.30;31.37;;;;;;;;;;6227586;28;20136;-61
2022/08/23 17:29:39;;;;;;;84.15;31.45;;;;;;;;;;6225599;28;20132;-58
2022/08/23 17:32:43;;;;;;;95.38;33.03;;;;;;;;;;6226035;28;20052;-59
2022/08/23 17:35:45;;;;;;;90.53;31.83;;;;;;;;;;6224195;28;20947;-56
2022/08/23 17:38:46;;;;;;;81.90;31.90;;;;;;;;;;6225877;28;20042;-61
2022/08/23 17:41:47;;;;;;;91.63;33.03;;;;;;;;;;6222364;28;20053;-60
2022/08/23 17:44:47;;;;;;;81.90;32.20;;;;;;;;;;6227139;28;20144;-61
2022/08/23 17:47:48;;;;;;;81.57;31.87;;;;;;;;;;6230782;28;20041;-61
2022/08/23 17:50:49;;;;;;;83.95;32.30;;;;;;;;;;6229952;28;20485;-56
2022/08/23 17:53:49;;;;;;;93.57;35.13;;;;;;;;;;6231494;28;20084;-61
2022/08/23 17:56:50;;;;;;;87.90;31.83;;;;;;;;;;6228939;28;20055;-65
2022/08/23 17:59:51;;;;;;;89.13;33.70;;;;;;;;;;6230073;28;20148;-60
2022/08/23 18:02:52;;;;;;;86.68;32.30;;;;;;;;;;6230196;28;20157;-66
2022/08/23 18:05:53;;;;;;;86.70;32.80;;;;;;;;;;6223741;28;20057;-58
2022/08/23 18:08:54;;;;;;;83.22;31.60;;;;;;;;;;6225638;28;20605;-62